Terminal Aerodrome Forecast
Issued by NWS Jackson, KY

Home | Current Version | Previous Version | Text Only | Print | Product List | Glossary On
Versions: 1 2 3 4 5 6 7 8 9 10 11 12 13 14 15 16 17
339
FTUS43 KJKL 131720
TAFLOZ
TAF
KLOZ 131720Z 1318/1418 34008KT P6SM SCT035
     FM140200 VRB03KT P6SM FEW040 BKN150
     FM141300 05003KT P6SM -SHSN OVC040=

USA.gov is the U.S. government's official web portal to all federal, state and local government web resources and services.